Time;durP1;ratioP1;P1;durP2;ratioP2;P2;SDS_P1;SDS_P2;PMS_P1;PMS_P2;Temp;Humidity;BMP_temperature;BMP_pressure;BME280_temperature;BME280_humidity;BME280_pressure;Samples;Min_cycle;Max_cycle;Signal;HPM_P1;HPM_P2
2023/03/28 00:00:09;;;;;;;6.40;2.40;;;20.00;59.90;;;;;;4932286;28;86917;-83
2023/03/28 00:02:35;;;;;;;4.78;2.13;;;19.90;59.70;;;;;;4929810;28;89044;-83
2023/03/28 00:05:01;;;;;;;5.15;2.38;;;19.90;59.70;;;;;;4926394;28;89012;-83
2023/03/28 00:07:28;;;;;;;5.07;2.10;;;19.90;59.80;;;;;;4928425;28;87340;-83
2023/03/28 00:09:56;;;;;;;5.00;2.00;;;19.90;59.80;;;;;;4932529;28;88229;-84
2023/03/28 00:12:23;;;;;;;4.05;2.17;;;19.90;59.80;;;;;;4930318;28;87286;-84
2023/03/28 00:14:49;;;;;;;4.40;2.08;;;19.90;59.70;;;;;;4929867;28;87523;-84
2023/03/28 00:17:16;;;;;;;4.80;2.33;;;19.80;59.70;;;;;;4930004;28;87972;-84
2023/03/28 00:19:45;;;;;;;6.25;2.40;;;19.80;59.70;;;;;;4931277;28;86845;-84
2023/03/28 00:22:12;;;;;;;4.93;2.20;;;19.80;59.60;;;;;;4931297;28;87316;-83
2023/03/28 00:24:39;;;;;;;3.65;1.85;;;19.80;59.60;;;;;;4928092;28;88978;-83
2023/03/28 00:27:06;;;;;;;4.07;2.22;;;19.80;59.60;;;;;;4930588;28;87958;-83
2023/03/28 00:29:32;;;;;;;3.75;2.15;;;19.80;59.80;;;;;;4930305;28;86928;-83
2023/03/28 00:31:59;;;;;;;4.07;2.30;;;19.80;59.50;;;;;;4930356;28;87019;-83
2023/03/28 00:34:25;;;;;;;4.60;2.25;;;19.80;59.60;;;;;;4929192;28;88685;-83
2023/03/28 00:36:52;;;;;;;4.45;1.95;;;19.80;59.60;;;;;;4931591;28;89241;-83
2023/03/28 00:39:19;;;;;;;3.72;1.92;;;19.70;59.70;;;;;;4930904;28;87453;-83
2023/03/28 00:41:44;;;;;;;3.42;2.10;;;19.70;59.70;;;;;;4930972;28;87254;-84
2023/03/28 00:44:44;;;;;;;4.13;1.95;;;19.70;59.70;;;;;;4929038;28;87254;-83
2023/03/28 00:47:36;;;;;;;4.22;1.80;;;19.70;59.70;;;;;;4930670;28;87183;-83
2023/03/28 00:50:05;;;;;;;4.90;2.10;;;19.70;59.60;;;;;;4930743;28;87005;-83
2023/03/28 00:52:38;;;;;;;4.88;1.77;;;19.70;59.70;;;;;;4928854;28;89619;-83
2023/03/28 00:55:11;;;;;;;3.65;1.90;;;19.70;59.70;;;;;;4929717;28;87437;-84
2023/03/28 00:57:38;;;;;;;3.78;2.00;;;19.70;59.60;;;;;;4924643;28;91188;-83
2023/03/28 01:00:11;;;;;;;3.95;2.03;;;19.70;59.60;;;;;;4925986;28;88470;-84
2023/03/28 01:02:41;;;;;;;2.95;1.50;;;19.70;59.70;;;;;;4928415;28;87391;-84
2023/03/28 01:05:08;;;;;;;4.10;2.00;;;19.70;59.50;;;;;;4927546;28;91816;-83
2023/03/28 01:07:39;;;;;;;4.63;1.95;;;19.60;59.60;;;;;;4928641;28;87300;-83
2023/03/28 01:10:07;;;;;;;3.88;1.92;;;19.60;59.60;;;;;;4927856;28;87375;-83
2023/03/28 01:12:33;;;;;;;3.83;1.90;;;19.60;59.60;;;;;;4928852;28;90112;-84
2023/03/28 01:15:00;;;;;;;4.68;2.08;;;19.60;59.70;;;;;;4909349;28;90169;-83
2023/03/28 01:17:26;;;;;;;3.28;2.00;;;19.60;59.70;;;;;;4924835;28;94271;-83
2023/03/28 01:20:06;;;;;;;5.10;1.98;;;19.50;59.60;;;;;;4943488;28;86939;-83
2023/03/28 01:22:44;;;;;;;3.90;2.00;;;19.50;59.50;;;;;;4944896;28;87441;-84
2023/03/28 01:25:12;;;;;;;2.45;1.63;;;19.50;59.60;;;;;;4947004;28;89343;-83
2023/03/28 01:28:01;;;;;;;2.85;1.60;;;19.50;59.50;;;;;;4944477;28;89098;-83
2023/03/28 01:30:56;;;;;;;3.90;1.77;;;19.50;59.60;;;;;;4933379;28;87221;-84
2023/03/28 01:34:00;;;;;;;2.95;1.50;;;19.50;59.60;;;;;;4946207;28;87472;-84
2023/03/28 01:36:53;;;;;;;2.72;1.92;;;19.50;59.60;;;;;;4951721;28;91277;-84
2023/03/28 01:39:43;;;;;;;4.18;1.90;;;19.50;59.50;;;;;;4952027;28;87713;-84
2023/03/28 01:42:33;;;;;;;4.60;1.83;;;19.50;59.50;;;;;;4954417;28;87565;-84
2023/03/28 01:45:24;;;;;;;2.97;1.90;;;19.50;59.30;;;;;;4952952;28;86769;-83
2023/03/28 01:48:09;;;;;;;3.25;1.50;;;19.50;59.40;;;;;;4951586;28;88545;-84
2023/03/28 01:50:44;;;;;;;4.03;1.95;;;19.40;60.00;;;;;;4950674;28;89076;-84
2023/03/28 01:53:10;;;;;;;3.65;1.77;;;19.40;59.50;;;;;;4950523;28;88334;-83
2023/03/28 01:55:39;;;;;;;4.72;2.00;;;19.50;59.50;;;;;;4952034;28;87639;-84
2023/03/28 01:58:11;;;;;;;3.78;1.63;;;19.40;59.50;;;;;;4951266;28;89397;-84
2023/03/28 02:00:44;;;;;;;2.65;1.50;;;19.40;59.30;;;;;;4951263;28;91415;-84
2023/03/28 02:03:27;;;;;;;3.20;1.80;;;19.40;59.30;;;;;;4952257;28;86934;-83
2023/03/28 02:05:55;;;;;;;3.15;1.75;;;19.50;59.90;;;;;;4951910;28;87383;-83
2023/03/28 02:08:24;;;;;;;5.82;1.55;;;19.40;59.20;;;;;;4952123;28;88679;-84
2023/03/28 02:10:52;;;;;;;3.78;2.00;;;19.40;59.30;;;;;;4953433;28;88906;-84
2023/03/28 02:13:24;;;;;;;2.80;1.52;;;19.40;59.10;;;;;;4949133;28;86818;-84
2023/03/28 02:15:55;;;;;;;3.88;2.15;;;19.40;59.10;;;;;;4948861;28;91943;-84
2023/03/28 02:18:33;;;;;;;2.55;1.40;;;19.30;59.10;;;;;;4947605;28;88203;-83
2023/03/28 02:21:17;;;;;;;2.97;1.70;;;19.30;59.20;;;;;;4946997;28;88785;-84
2023/03/28 02:23:49;;;;;;;2.63;1.40;;;19.40;59.20;;;;;;4947317;28;87005;-83
2023/03/28 02:26:16;;;;;;;2.03;1.52;;;19.40;59.20;;;;;;4944474;28;89353;-83
2023/03/28 02:28:44;;;;;;;3.72;1.90;;;19.30;59.20;;;;;;4947776;28;87612;-84
2023/03/28 02:31:12;;;;;;;3.87;1.70;;;19.30;59.10;;;;;;4948096;28;88108;-83
2023/03/28 02:33:44;;;;;;;3.63;1.80;;;19.30;59.20;;;;;;4944237;28;87535;-83
2023/03/28 02:36:17;;;;;;;3.30;2.05;;;19.30;59.00;;;;;;4949610;28;87915;-84
2023/03/28 02:39:20;;;;;;;3.65;1.90;;;19.30;59.00;;;;;;4946359;28;89650;-84
2023/03/28 02:42:06;;;;;;;3.33;1.83;;;19.20;59.20;;;;;;4948790;28;88245;-84
2023/03/28 02:44:59;;;;;;;4.97;1.95;;;19.30;59.30;;;;;;4950006;28;88506;-84
2023/03/28 02:47:25;;;;;;;3.63;1.98;;;19.30;59.10;;;;;;4948047;28;87101;-84
2023/03/28 02:50:03;;;;;;;2.42;1.25;;;19.20;59.00;;;;;;4937573;28;88106;-83
2023/03/28 02:52:33;;;;;;;2.42;1.27;;;19.20;59.10;;;;;;4948048;28;87883;-83
2023/03/28 02:55:27;;;;;;;2.83;1.55;;;19.20;59.20;;;;;;4949533;28;87518;-83
2023/03/28 02:58:09;;;;;;;3.60;1.73;;;19.30;59.20;;;;;;4947821;28;91608;-83
2023/03/28 03:00:35;;;;;;;3.70;2.03;;;19.20;59.10;;;;;;4929162;28;91713;-83
2023/03/28 03:03:02;;;;;;;5.18;1.60;;;19.20;59.10;;;;;;4929942;28;87920;-84
2023/03/28 03:05:29;;;;;;;2.60;1.60;;;19.20;59.10;;;;;;4929660;28;87296;-83
2023/03/28 03:07:55;;;;;;;7.15;1.67;;;19.20;58.90;;;;;;4928496;28;87348;-83
2023/03/28 03:10:21;;;;;;;4.50;1.65;;;19.10;59.00;;;;;;4928983;28;89996;-83
2023/03/28 03:12:47;;;;;;;2.53;1.60;;;19.10;59.10;;;;;;4946288;28;92776;-84
2023/03/28 03:15:15;;;;;;;3.13;1.58;;;19.10;58.90;;;;;;4947047;28;87141;-84
2023/03/28 03:17:42;;;;;;;2.77;1.40;;;19.20;58.90;;;;;;4918058;28;90570;-84
2023/03/28 03:20:09;;;;;;;2.63;1.65;;;19.20;58.90;;;;;;4928051;28;88125;-83
2023/03/28 03:22:35;;;;;;;2.70;1.63;;;19.10;59.00;;;;;;4928193;28;87688;-83
2023/03/28 03:25:06;;;;;;;2.00;1.38;;;19.10;58.90;;;;;;4927419;28;86887;-84
2023/03/28 03:27:34;;;;;;;2.72;1.48;;;19.10;58.80;;;;;;4926120;28;90686;-83
2023/03/28 03:30:00;;;;;;;2.90;1.70;;;19.10;58.90;;;;;;4942681;28;88465;-84
2023/03/28 03:32:26;;;;;;;2.00;1.30;;;19.10;58.70;;;;;;4947464;28;87571;-84
2023/03/28 03:34:51;;;;;;;2.67;1.50;;;19.10;58.90;;;;;;4943458;28;88610;-83
2023/03/28 03:37:18;;;;;;;3.65;1.77;;;19.10;58.90;;;;;;4929769;28;87324;-84
2023/03/28 03:39:44;;;;;;;2.13;1.20;;;19.10;58.90;;;;;;4928782;28;88073;-83
2023/03/28 03:42:12;;;;;;;2.53;1.52;;;19.10;58.80;;;;;;4926668;28;88259;-84
2023/03/28 03:44:37;;;;;;;2.90;1.60;;;19.10;58.80;;;;;;4927654;28;87061;-83
2023/03/28 03:47:04;;;;;;;2.92;1.63;;;19.00;58.90;;;;;;4926751;28;87541;-83
2023/03/28 03:49:30;;;;;;;2.75;1.67;;;19.00;58.90;;;;;;4926943;28;89056;-83
2023/03/28 03:51:55;;;;;;;2.20;1.25;;;19.00;59.00;;;;;;4913438;28;91769;-83
2023/03/28 03:54:21;;;;;;;2.00;1.42;;;19.00;58.80;;;;;;4928958;28;87760;-84
2023/03/28 03:56:47;;;;;;;3.28;1.60;;;19.00;58.70;;;;;;4924611;28;88687;-84
2023/03/28 03:59:13;;;;;;;2.95;1.60;;;19.00;58.70;;;;;;4926112;28;90446;-83
2023/03/28 04:01:40;;;;;;;2.72;1.33;;;19.00;58.70;;;;;;4927118;28;89238;-84
2023/03/28 04:04:06;;;;;;;2.55;1.63;;;19.00;58.70;;;;;;4928557;28;87396;-84
2023/03/28 04:06:33;;;;;;;2.65;1.63;;;19.00;58.80;;;;;;4926282;28;87903;-83
2023/03/28 04:09:01;;;;;;;3.17;1.63;;;19.00;58.80;;;;;;4927946;28;89008;-84
2023/03/28 04:11:26;;;;;;;1.90;1.40;;;19.00;58.80;;;;;;4928133;28;88098;-83
2023/03/28 04:13:52;;;;;;;1.92;1.25;;;19.00;58.70;;;;;;4925918;28;86951;-83
2023/03/28 04:16:19;;;;;;;1.88;1.17;;;19.00;58.70;;;;;;4928541;28;86822;-84
2023/03/28 04:18:49;;;;;;;4.00;1.90;;;18.90;59.00;;;;;;4926592;28;89374;-84
2023/03/28 04:21:17;;;;;;;2.13;1.23;;;18.90;58.70;;;;;;4924911;28;87676;-84
2023/03/28 04:23:43;;;;;;;3.22;1.50;;;18.90;58.70;;;;;;4945783;28;88798;-84
2023/03/28 04:26:09;;;;;;;1.95;1.10;;;18.90;58.60;;;;;;4946268;28;87421;-84
2023/03/28 04:28:34;;;;;;;2.50;1.33;;;18.90;58.70;;;;;;4943481;28;87582;-84
2023/03/28 04:31:00;;;;;;;2.38;1.30;;;18.90;58.70;;;;;;4929054;28;87339;-83
2023/03/28 04:33:29;;;;;;;2.15;1.35;;;18.90;58.70;;;;;;4926340;28;87273;-84
2023/03/28 04:36:00;;;;;;;1.80;1.13;;;18.90;58.60;;;;;;4927402;28;88598;-84
2023/03/28 04:38:27;;;;;;;3.63;1.33;;;18.90;58.50;;;;;;4927732;28;87397;-84
2023/03/28 04:40:57;;;;;;;2.38;1.33;;;18.80;58.50;;;;;;4927412;28;87894;-82
2023/03/28 04:43:29;;;;;;;2.67;1.45;;;18.90;58.60;;;;;;4921498;28;86916;-84
2023/03/28 04:45:56;;;;;;;2.03;1.40;;;18.90;58.70;;;;;;4930214;28;87569;-83
2023/03/28 04:48:22;;;;;;;2.67;1.48;;;18.90;58.50;;;;;;4927266;28;88770;-84
2023/03/28 04:50:48;;;;;;;2.42;1.23;;;18.80;58.40;;;;;;4926462;28;88423;-83
2023/03/28 04:53:14;;;;;;;1.52;1.17;;;18.80;58.60;;;;;;4928361;28;87066;-84
2023/03/28 04:55:42;;;;;;;3.13;1.50;;;18.90;58.40;;;;;;4926383;28;87491;-84
2023/03/28 04:58:09;;;;;;;1.90;1.30;;;18.90;58.40;;;;;;4926990;28;87948;-84
2023/03/28 05:00:35;;;;;;;2.97;1.60;;;18.80;58.30;;;;;;4923644;28;90254;-84
2023/03/28 05:03:05;;;;;;;1.83;1.20;;;18.80;58.40;;;;;;4925315;28;88917;-83
2023/03/28 05:05:31;;;;;;;2.70;1.40;;;18.80;58.50;;;;;;4927013;28;86935;-83
2023/03/28 05:07:59;;;;;;;4.22;1.67;;;18.80;58.50;;;;;;4927043;28;87514;-84
2023/03/28 05:10:25;;;;;;;3.00;1.27;;;18.70;58.50;;;;;;4926323;28;88208;-83
2023/03/28 05:12:50;;;;;;;2.22;1.40;;;18.80;58.50;;;;;;4927389;28;88143;-83
2023/03/28 05:15:16;;;;;;;2.47;1.60;;;18.80;58.60;;;;;;4926069;28;87030;-84
2023/03/28 05:17:44;;;;;;;2.05;1.33;;;18.70;58.40;;;;;;4925814;28;87685;-84
2023/03/28 05:20:10;;;;;;;2.70;1.35;;;18.70;58.40;;;;;;4924903;28;87376;-84
2023/03/28 05:22:36;;;;;;;2.17;1.38;;;18.70;58.50;;;;;;4925857;28;87452;-84
2023/03/28 05:25:07;;;;;;;2.60;1.58;;;18.70;58.30;;;;;;4926367;28;87251;-83
2023/03/28 05:27:33;;;;;;;1.45;1.25;;;18.70;58.40;;;;;;4925209;28;87768;-83
2023/03/28 05:30:00;;;;;;;2.13;1.50;;;18.70;58.30;;;;;;4919488;28;90333;-84
2023/03/28 05:32:26;;;;;;;1.60;1.10;;;18.70;58.30;;;;;;4935261;28;87085;-83
2023/03/28 05:34:52;;;;;;;3.22;1.35;;;18.70;58.30;;;;;;4943573;28;86922;-83
2023/03/28 05:37:18;;;;;;;2.22;1.33;;;18.70;58.50;;;;;;4946224;28;88805;-84
2023/03/28 05:39:44;;;;;;;2.47;1.45;;;18.60;58.40;;;;;;4926069;28;88962;-83
2023/03/28 05:42:10;;;;;;;1.95;1.45;;;18.60;58.30;;;;;;4925724;28;87608;-84
2023/03/28 05:44:35;;;;;;;2.90;1.40;;;18.60;58.40;;;;;;4927534;28;87511;-83
2023/03/28 05:47:01;;;;;;;2.58;1.23;;;18.60;58.50;;;;;;4926257;28;87351;-83
2023/03/28 05:49:27;;;;;;;1.98;1.20;;;18.60;58.60;;;;;;4926214;28;88286;-83
2023/03/28 05:51:52;;;;;;;2.05;1.33;;;18.60;58.40;;;;;;4927975;28;87203;-84
2023/03/28 05:54:18;;;;;;;2.47;1.23;;;18.60;58.40;;;;;;4927798;28;88206;-83
2023/03/28 05:56:44;;;;;;;2.42;1.33;;;18.60;58.60;;;;;;4925082;28;88270;-84
2023/03/28 05:59:09;;;;;;;1.98;1.27;;;18.60;58.60;;;;;;4926380;28;87462;-84
2023/03/28 06:01:35;;;;;;;2.15;1.50;;;18.60;58.60;;;;;;4925334;28;88044;-83
2023/03/28 06:04:05;;;;;;;1.42;1.08;;;18.60;58.60;;;;;;4924223;28;88871;-84
2023/03/28 06:06:33;;;;;;;;;;;18.60;58.50;;;;;;4925365;28;88297;-83
2023/03/28 06:08:59;;;;;;;1.30;1.05;;;18.60;58.30;;;;;;4927806;28;87289;-83
2023/03/28 06:11:25;;;;;;;1.70;1.33;;;18.60;58.30;;;;;;4927652;28;87695;-84
2023/03/28 06:13:51;;;;;;;3.33;1.55;;;18.60;58.30;;;;;;4923090;28;88081;-84
2023/03/28 06:16:17;;;;;;;1.83;1.30;;;18.70;58.40;;;;;;4928427;28;88097;-84
2023/03/28 06:18:43;;;;;;;2.40;1.60;;;18.60;58.30;;;;;;4928668;28;88279;-82
2023/03/28 06:21:08;;;;;;;3.58;1.35;;;18.70;58.40;;;;;;4929246;28;87478;-83
2023/03/28 06:23:34;;;;;;;3.75;1.25;;;18.80;58.10;;;;;;4929693;28;87406;-84
2023/03/28 06:26:01;;;;;;;1.73;1.20;;;18.80;57.90;;;;;;4920103;28;91433;-84
2023/03/28 06:28:27;;;;;;;1.83;1.10;;;18.90;57.80;;;;;;4911410;28;89037;-84
2023/03/28 06:30:52;;;;;;;3.22;1.48;;;18.90;58.00;;;;;;4929201;28;87352;-83
2023/03/28 06:33:18;;;;;;;1.50;1.20;;;18.90;57.90;;;;;;4913728;28;87715;-82
2023/03/28 06:35:44;;;;;;;2.60;1.70;;;19.10;58.10;;;;;;4926418;28;88171;-81
2023/03/28 06:38:09;;;;;;;2.20;1.40;;;19.20;58.00;;;;;;4919214;28;88097;-81
2023/03/28 06:40:35;;;;;;;3.22;1.55;;;19.40;58.00;;;;;;4926165;28;87462;-82
2023/03/28 06:43:01;;;;;;;5.10;1.40;;;19.60;58.00;;;;;;4926998;28;87426;-81
2023/03/28 06:45:26;;;;;;;3.80;1.85;;;19.80;58.00;;;;;;4925264;28;88218;-83
2023/03/28 06:47:52;;;;;;;3.25;1.40;;;19.90;57.90;;;;;;4927712;28;87974;-82
2023/03/28 06:50:18;;;;;;;4.05;1.60;;;20.00;57.80;;;;;;4898633;28;88698;-83
2023/03/28 06:52:44;;;;;;;2.85;1.48;;;20.10;57.60;;;;;;4928643;28;87743;-82
2023/03/28 06:55:13;;;;;;;3.30;1.65;;;20.10;57.50;;;;;;4920254;28;91220;-84
2023/03/28 06:57:39;;;;;;;3.90;1.90;;;20.00;57.70;;;;;;4931438;28;87935;-83
2023/03/28 07:00:06;;;;;;;4.65;1.52;;;20.10;57.70;;;;;;4928203;28;87340;-83
2023/03/28 07:02:32;;;;;;;2.88;1.20;;;20.10;57.80;;;;;;4925198;28;87840;-84
2023/03/28 07:04:57;;;;;;;6.78;1.67;;;20.10;57.40;;;;;;4919056;28;90617;-84
2023/03/28 07:07:23;;;;;;;5.00;1.38;;;20.00;57.80;;;;;;4926799;28;89362;-84
2023/03/28 07:09:51;;;;;;;6.07;1.52;;;20.00;58.30;;;;;;4911536;28;87404;-84
2023/03/28 07:12:17;;;;;;;4.63;1.30;;;19.90;58.20;;;;;;4929000;28;87213;-83
2023/03/28 07:14:43;;;;;;;6.05;1.65;;;19.80;58.50;;;;;;4928482;28;90727;-84
2023/03/28 07:17:10;;;;;;;2.92;1.40;;;19.80;58.70;;;;;;4929028;28;88285;-84
2023/03/28 07:19:36;;;;;;;4.50;1.30;;;19.80;58.60;;;;;;4928241;28;87900;-83
2023/03/28 07:22:02;;;;;;;3.83;1.65;;;19.90;58.40;;;;;;4924688;28;90486;-82
2023/03/28 07:24:28;;;;;;;4.60;1.60;;;19.90;58.30;;;;;;4925851;28;89763;-83
2023/03/28 07:26:54;;;;;;;3.65;1.38;;;19.70;58.50;;;;;;4924169;28;90086;-84
2023/03/28 07:29:20;;;;;;;3.70;1.77;;;19.70;58.60;;;;;;4897029;28;87425;-83
2023/03/28 07:31:45;;;;;;;2.25;1.40;;;19.80;58.60;;;;;;4924596;28;87481;-83
2023/03/28 07:34:11;;;;;;;2.25;1.20;;;19.80;58.80;;;;;;4885729;28;88355;-83
2023/03/28 07:36:38;;;;;;;4.10;1.75;;;19.90;58.60;;;;;;4912311;28;87373;-83
2023/03/28 07:39:04;;;;;;;3.35;1.40;;;20.00;58.40;;;;;;4927222;28;87907;-84
2023/03/28 07:41:30;;;;;;;3.92;1.40;;;20.20;58.40;;;;;;4925511;28;86961;-83
2023/03/28 07:43:56;;;;;;;3.80;1.70;;;20.20;58.10;;;;;;4922873;28;88741;-82
2023/03/28 07:46:22;;;;;;;7.40;1.42;;;20.30;58.00;;;;;;4924657;28;88448;-82
2023/03/28 07:48:48;;;;;;;4.20;1.30;;;20.30;58.00;;;;;;4926104;28;87262;-83
2023/03/28 07:51:14;;;;;;;2.75;1.35;;;20.30;57.90;;;;;;4925009;28;87545;-83
2023/03/28 07:53:40;;;;;;;2.03;1.40;;;20.30;57.80;;;;;;4924007;28;88087;-82
2023/03/28 07:56:10;;;;;;;2.45;1.27;;;20.30;58.00;;;;;;4923268;28;87857;-82
2023/03/28 07:58:39;;;;;;;3.42;1.63;;;20.30;58.00;;;;;;4925160;28;87537;-82
2023/03/28 08:01:08;;;;;;;3.63;1.20;;;20.30;58.20;;;;;;4927010;28;87966;-82
2023/03/28 08:03:34;;;;;;;2.15;1.45;;;20.20;58.00;;;;;;4922187;28;91274;-82
2023/03/28 08:06:04;;;;;;;2.75;1.50;;;20.20;58.30;;;;;;4913959;28;89744;-82
2023/03/28 08:08:31;;;;;;;2.28;1.23;;;20.10;58.40;;;;;;4922556;28;87045;-82
2023/03/28 08:10:57;;;;;;;2.63;1.40;;;20.10;58.50;;;;;;4924618;28;87537;-82
2023/03/28 08:13:23;;;;;;;2.42;1.40;;;20.10;58.60;;;;;;4926613;28;88996;-84
2023/03/28 08:15:50;;;;;;;1.48;1.13;;;20.10;58.90;;;;;;4926454;28;87475;-83
2023/03/28 08:18:19;;;;;;;3.58;1.20;;;20.00;59.00;;;;;;4926030;28;87335;-84
2023/03/28 08:20:49;;;;;;;2.92;1.30;;;20.10;58.80;;;;;;4923147;28;87924;-82
2023/03/28 08:23:15;;;;;;;2.60;1.20;;;20.10;59.00;;;;;;4922935;28;90060;-84
2023/03/28 08:25:43;;;;;;;1.60;1.13;;;20.10;59.10;;;;;;4924196;28;87645;-83
2023/03/28 08:28:10;;;;;;;3.30;1.30;;;20.10;58.50;;;;;;4924191;28;88451;-84
2023/03/28 08:30:36;;;;;;;2.28;1.17;;;20.10;57.60;;;;;;4925223;28;89296;-84
2023/03/28 08:33:03;;;;;;;1.83;1.08;;;20.10;58.60;;;;;;4924693;28;89449;-85
2023/03/28 08:35:32;;;;;;;1.52;1.23;;;20.10;58.90;;;;;;4927230;28;87173;-86
2023/03/28 08:37:58;;;;;;;;;;;20.00;58.80;;;;;;4925420;28;86937;-84
2023/03/28 08:40:27;;;;;;;5.35;1.80;;;20.10;58.80;;;;;;4922369;28;86799;-85
2023/03/28 08:43:03;;;;;;;4.70;1.97;;;20.20;58.10;;;;;;4925058;28;89138;-83
2023/03/28 08:45:41;;;;;;;1.90;1.40;;;20.20;57.80;;;;;;4922707;28;88246;-82
2023/03/28 08:48:24;;;;;;;4.32;1.80;;;20.30;58.10;;;;;;4925505;28;87511;-84
2023/03/28 08:50:58;;;;;;;5.38;1.75;;;20.40;58.10;;;;;;4922855;28;88333;-85
2023/03/28 08:53:53;;;;;;;8.73;2.40;;;20.50;57.70;;;;;;4924160;28;88959;-85
2023/03/28 08:56:19;;;;;;;4.53;1.80;;;20.50;57.30;;;;;;4822927;29;91330;-84
2023/03/28 08:59:14;;;;;;;5.20;1.73;;;20.60;57.60;;;;;;4841949;29;87047;-84
2023/03/28 09:01:41;;;;;;;3.67;1.50;;;20.60;57.90;;;;;;4855337;29;90666;-83
2023/03/28 09:04:06;;;;;;;3.65;1.48;;;20.60;57.80;;;;;;4855371;28;87533;-84
2023/03/28 09:06:39;;;;;;;6.65;1.85;;;20.60;57.90;;;;;;4857235;29;87284;-84
2023/03/28 09:09:20;;;;;;;4.60;1.80;;;20.60;58.00;;;;;;4854821;28;87258;-83
2023/03/28 09:11:53;;;;;;;6.32;2.05;;;20.50;58.00;;;;;;4856537;29;86948;-84
2023/03/28 09:14:33;;;;;;;6.25;2.10;;;20.50;58.20;;;;;;4853730;29;87699;-84
2023/03/28 09:17:08;;;;;;;3.85;1.77;;;20.40;58.20;;;;;;4855419;29;88687;-83
2023/03/28 09:20:18;;;;;;;4.38;1.67;;;20.40;58.40;;;;;;4851019;28;88316;-84
2023/03/28 09:23:04;;;;;;;6.53;2.08;;;20.40;58.60;;;;;;4825557;29;89366;-84
2023/03/28 09:25:52;;;;;;;3.45;1.83;;;20.30;58.70;;;;;;4847227;28;88621;-83
2023/03/28 09:28:18;;;;;;;3.75;1.70;;;20.40;58.80;;;;;;4845884;29;87356;-83
2023/03/28 09:30:47;;;;;;;3.97;1.95;;;20.40;58.60;;;;;;4844439;29;87424;-83
2023/03/28 09:33:20;;;;;;;3.50;1.40;;;20.50;58.50;;;;;;4864993;28;88831;-83
2023/03/28 09:35:48;;;;;;;5.05;1.70;;;20.50;58.70;;;;;;4897473;28;88094;-84
2023/03/28 09:39:05;;;;;;;4.80;2.10;;;20.60;58.60;;;;;;4900148;28;86477;-82
2023/03/28 09:41:44;;;;;;;4.47;1.92;;;20.60;58.40;;;;;;4891656;28;87115;-83
2023/03/28 09:44:15;;;;;;;3.03;1.58;;;20.60;58.60;;;;;;4892216;28;88219;-83
2023/03/28 09:46:43;;;;;;;7.30;2.83;;;20.70;58.30;;;;;;4892605;28;88977;-85
2023/03/28 09:49:23;;;;;;;5.80;2.30;;;20.60;57.10;;;;;;4893304;28;90912;-83
2023/03/28 09:51:51;;;;;;;5.80;2.30;;;20.60;57.30;;;;;;4895995;28;87521;-81
2023/03/28 09:54:27;;;;;;;7.65;2.15;;;20.60;57.80;;;;;;4886500;28;89186;-82
2023/03/28 09:56:59;;;;;;;7.80;2.75;;;20.60;58.00;;;;;;4896088;28;87651;-83
2023/03/28 09:59:27;;;;;;;6.25;2.28;;;20.60;58.10;;;;;;4875098;28;87288;-82
2023/03/28 10:01:54;;;;;;;6.07;2.22;;;20.60;58.10;;;;;;4857790;28;87078;-83
2023/03/28 10:04:31;;;;;;;7.18;1.75;;;20.60;58.20;;;;;;4858262;29;87148;-82
2023/03/28 10:07:09;;;;;;;6.18;2.10;;;20.60;58.30;;;;;;4858275;29;88327;-82
2023/03/28 10:09:46;;;;;;;7.13;2.10;;;20.60;58.80;;;;;;4857373;28;91377;-83
2023/03/28 10:12:32;;;;;;;5.63;2.22;;;20.60;58.60;;;;;;4857675;29;88640;-83
2023/03/28 10:14:57;;;;;;;4.55;1.90;;;20.50;58.80;;;;;;4858225;28;86986;-83
2023/03/28 10:17:32;;;;;;;8.15;2.20;;;20.60;59.00;;;;;;4893278;28;87900;-87
2023/03/28 10:20:15;;;;;;;4.45;2.15;;;20.60;58.50;;;;;;4946797;28;89734;-83
2023/03/28 10:22:45;;;;;;;6.03;2.03;;;20.60;58.90;;;;;;4951491;28;87486;-82
2023/03/28 10:25:16;;;;;;;5.75;2.30;;;20.70;58.90;;;;;;4948400;28;88393;-83
2023/03/28 10:27:43;;;;;;;7.07;2.22;;;20.60;58.90;;;;;;4951069;28;90088;-85
2023/03/28 10:30:12;;;;;;;9.10;2.97;;;20.60;57.90;;;;;;4949756;28;87126;-84
2023/03/28 10:32:38;;;;;;;6.45;2.17;;;20.50;57.10;;;;;;4942866;28;87547;-84
2023/03/28 10:35:24;;;;;;;9.35;2.50;;;20.50;57.70;;;;;;4929446;28;88583;-85
2023/03/28 10:37:54;;;;;;;12.27;3.47;;;20.50;58.00;;;;;;4927814;28;89436;-85
2023/03/28 10:40:19;;;;;;;9.48;4.07;;;20.50;58.80;;;;;;4930208;28;89338;-83
2023/03/28 10:42:49;;;;;;;8.07;2.80;;;20.50;60.00;;;;;;4932278;28;87431;-86
2023/03/28 10:45:23;;;;;;;9.82;4.25;;;20.40;59.10;;;;;;4927923;28;88073;-84
2023/03/28 10:47:50;;;;;;;7.82;3.22;;;20.40;58.90;;;;;;4931094;28;88169;-85
2023/03/28 10:50:27;;;;;;;8.82;3.88;;;20.40;59.10;;;;;;4928013;28;87532;-85
2023/03/28 10:52:58;;;;;;;13.65;4.80;;;20.50;59.30;;;;;;4928812;28;87352;-83
2023/03/28 10:55:31;;;;;;;12.18;4.57;;;20.50;60.40;;;;;;4929942;28;87240;-83
2023/03/28 10:58:15;;;;;;;9.00;4.15;;;20.60;59.90;;;;;;4930351;28;87436;-82
2023/03/28 11:00:50;;;;;;;8.27;3.00;;;20.70;59.90;;;;;;4927818;28;94253;-82
2023/03/28 11:03:56;;;;;;;7.68;3.10;;;20.70;57.00;;;;;;4927759;28;88399;-82
2023/03/28 11:06:46;;;;;;;10.23;3.70;;;20.80;57.90;;;;;;4861304;28;87207;-83
2023/03/28 11:09:25;;;;;;;8.80;3.75;;;20.90;58.40;;;;;;4858581;29;89520;-82
2023/03/28 11:12:17;;;;;;;8.55;3.63;;;20.90;58.70;;;;;;4861319;28;89416;-82
2023/03/28 11:15:08;;;;;;;11.80;3.95;;;21.00;57.00;;;;;;4859784;29;87133;-82
2023/03/28 11:17:49;;;;;;;10.15;4.05;;;21.10;57.00;;;;;;4803751;29;87350;-81
2023/03/28 11:20:21;;;;;;;15.35;4.38;;;21.00;56.90;;;;;;4801564;29;89561;-81
2023/03/28 11:23:14;;;;;;;12.32;3.92;;;20.90;57.40;;;;;;4804776;29;87910;-82
2023/03/28 11:26:08;;;;;;;12.63;3.65;;;20.80;58.00;;;;;;4785500;29;86984;-82
2023/03/28 11:28:41;;;;;;;7.90;3.78;;;20.80;57.80;;;;;;4786911;29;87782;-82
2023/03/28 11:31:14;;;;;;;9.07;3.67;;;20.70;59.10;;;;;;4785772;29;89533;-82
2023/03/28 11:33:48;;;;;;;13.13;4.18;;;20.70;58.20;;;;;;4793139;29;90725;-83
2023/03/28 11:36:18;;;;;;;7.45;3.50;;;20.70;58.60;;;;;;4795269;29;87068;-83
2023/03/28 11:38:58;;;;;;;7.25;3.70;;;20.60;58.60;;;;;;4798180;29;87430;-84
2023/03/28 11:41:29;;;;;;;9.10;4.30;;;20.50;59.00;;;;;;4796251;29;89001;-83
2023/03/28 11:44:25;;;;;;;10.60;3.55;;;20.50;59.00;;;;;;4793631;29;90020;-83
2023/03/28 11:47:21;;;;;;;13.50;3.83;;;20.60;58.70;;;;;;4795832;29;87327;-83
2023/03/28 11:50:13;;;;;;;7.90;4.43;;;20.70;58.70;;;;;;4809572;29;87337;-82
2023/03/28 11:52:53;;;;;;;11.55;4.00;;;20.70;58.60;;;;;;4823447;29;88881;-83
2023/03/28 11:55:22;;;;;;;8.10;3.80;;;20.70;58.60;;;;;;4880491;28;87743;-83
2023/03/28 11:58:17;;;;;;;8.90;3.65;;;20.70;58.70;;;;;;4898607;28;88070;-82
2023/03/28 12:00:50;;;;;;;9.32;3.95;;;20.70;58.80;;;;;;4899126;28;90942;-83
2023/03/28 12:03:24;;;;;;;9.27;3.30;;;20.70;58.40;;;;;;4899824;28;89211;-85
2023/03/28 12:05:56;;;;;;;9.38;3.72;;;20.60;54.20;;;;;;4899386;28;88058;-84
2023/03/28 12:08:26;;;;;;;9.43;3.25;;;20.60;55.50;;;;;;4900414;28;87621;-85
2023/03/28 12:11:04;;;;;;;9.45;3.83;;;20.60;56.40;;;;;;4898917;28;87456;-84
2023/03/28 12:13:33;;;;;;;13.38;3.60;;;20.60;57.40;;;;;;4898112;28;88971;-85
2023/03/28 12:16:02;;;;;;;5.85;3.30;;;20.70;57.60;;;;;;4898419;28;87851;-84
2023/03/28 12:18:31;;;;;;;;;;;20.70;57.40;;;;;;4899794;28;86886;-84
2023/03/28 12:21:18;;;;;;;10.02;3.78;;;20.70;57.40;;;;;;4900030;28;87542;-84
2023/03/28 12:24:02;;;;;;;7.25;3.20;;;20.80;57.30;;;;;;4893615;28;88591;-84
2023/03/28 12:27:05;;;;;;;11.48;3.70;;;20.80;57.20;;;;;;4893727;28;89311;-84
2023/03/28 12:29:49;;;;;;;9.65;3.22;;;20.80;57.40;;;;;;4899543;28;86884;-84
2023/03/28 12:32:33;;;;;;;7.70;3.33;;;20.70;57.40;;;;;;4911294;28;87373;-84
2023/03/28 12:35:14;;;;;;;9.10;3.95;;;20.70;57.80;;;;;;4922153;28;90309;-83
2023/03/28 12:37:40;;;;;;;9.77;3.50;;;20.60;57.30;;;;;;4931268;28;88559;-85
2023/03/28 12:40:12;;;;;;;9.60;3.40;;;20.60;57.20;;;;;;4945413;28;87489;-84
2023/03/28 12:42:42;;;;;;;5.10;2.80;;;20.60;57.70;;;;;;4945209;28;88495;-85
2023/03/28 12:45:31;;;;;;;6.82;3.42;;;20.60;57.80;;;;;;4927043;28;88452;-84
2023/03/28 12:48:05;;;;;;;7.75;3.30;;;20.50;58.00;;;;;;4923410;28;89787;-84
2023/03/28 12:50:48;;;;;;;9.05;3.55;;;20.50;58.10;;;;;;4926271;28;87832;-84
2023/03/28 12:53:16;;;;;;;6.10;3.35;;;20.60;58.00;;;;;;4925078;28;87974;-83
2023/03/28 12:55:47;;;;;;;10.68;3.85;;;20.70;58.00;;;;;;4924379;28;88132;-85
2023/03/28 12:58:27;;;;;;;8.15;3.10;;;20.70;57.80;;;;;;4920709;28;88158;-84
2023/03/28 13:01:08;;;;;;;6.65;3.00;;;20.90;56.60;;;;;;4925380;28;87450;-84
2023/03/28 13:03:36;;;;;;;10.60;3.72;;;20.80;57.20;;;;;;4928564;28;91753;-85
2023/03/28 13:06:17;;;;;;;6.28;3.00;;;20.80;57.30;;;;;;4939713;28;89087;-84
2023/03/28 13:08:58;;;;;;;9.85;2.97;;;20.80;57.10;;;;;;4943340;28;87128;-83
2023/03/28 13:12:06;;;;;;;8.40;3.08;;;20.90;56.80;;;;;;4931774;28;87137;-84